Airfield :
LOGIN :

Register | Disclaimer

   EN    FR    IT 

 










Legend :    VFR   Marginal VFR   IFR   Intensive IFR   Very Intensive IFR
Visi :
Ceiling :
>= 8 km
>= 3000ft
5 to 8 km
1000 to 3000 ft
1500m to 5 km
500 to 1000 ft
800 to 1500m
200 to 500 ft
< 800m
< 200 ft
Symbols :   Thunderstorms  Fog  Heavy snow  Heavy precipitations  Wind > 20 kt
SIGMETs :     Misc.  Thunderstorms  Icing  Turbulence  Mountain Waves  Volcanic Ashes






- Airport Elevation : 76 ft
- IATA code : KID


ESMK - Kristianstad

CURRENT METAR :
  • 270550Z 21004KT 5000 BR BKN005 03/02 Q1009

EXPIRED METARs :
  • 270520Z 21004KT 7000 BKN005 03/02 Q1009
  • 270450Z VRB03KT 8000 BKN006 03/02 Q1009
  • 270420Z AUTO VRB03KT 8000 BR OVC005/// 03/02 Q1010
  • 270350Z AUTO 16005KT 120V210 8000 BR OVC005/// 03/02 Q1010
  • 270320Z AUTO 22006KT 9000 BR OVC006/// 03/02 Q1010

TAF TAF ESMK
Valid from the 27 at 06:00 until the 27 at 15:00 UTC


270505Z 2706/2715 17008KT 4000 BR BKN005
TEMPO 2706/2715 6000 NSW BKN010



MET'MAP, your aeronautical weather chart ! - Copyright ORBIFLY December 2007 - Disclaimer

ORBIFLY MET'MAP TEAM :

Programming & Development : Alexandra Zaïnal
Concept & original design : Baudouin d'Aumeries
Assistance for programming : Marc-Olivier Méhu
Technical & hardware support : Manuel Goepfert

Contact : metmap@orbifly.com




SOURCES & CREDITS :

   NOAA